Airfield :
LOGIN :

Register | Disclaimer

   EN    FR    IT 

 










Legend :    VFR   Marginal VFR   IFR   Intensive IFR   Very Intensive IFR
Visi :
Ceiling :
>= 8 km
>= 3000ft
5 to 8 km
1000 to 3000 ft
1500m to 5 km
500 to 1000 ft
800 to 1500m
200 to 500 ft
< 800m
< 200 ft
Symbols :   Thunderstorms  Fog  Heavy snow  Heavy precipitations  Wind > 20 kt
SIGMETs :     Misc.  Thunderstorms  Icing  Turbulence  Mountain Waves  Volcanic Ashes







- Airport Elevation : -11 ft
- IATA code : AMS


EHAM - Amsterdam Schiphol

CURRENT METAR :
  • 210725Z 09011KT 060V120 9000 FEW028 03/00 Q1014 NOSIG

EXPIRED METARs :
  • 210655Z 10010KT 9000 FEW028 SCT033 03/00 Q1014 NOSIG
  • 210625Z 10011KT 9000 FEW025 BKN033 BKN049 03/00 Q1014 NOSIG
  • 210555Z 10010KT 060V130 9000 FEW025 BKN033 BKN049 03/00 Q1013 NOSIG
  • 210525Z 11009KT 080V140 9000 -RA SCT024 OVC032 03/00 Q1013 NOSIG
  • 210455Z 11011KT 080V140 9999 FEW025 OVC033 03/00 Q1013 NOSIG

TAF TAF EHAM
Valid from the 21 at 06:00 until the 22 at 12:00 UTC


210509Z 2106/2212 10009KT 9999 BKN025
PROB40
TEMPO 2202/2210 5000 BR BKN006
No reported NOTAMs for that airfield.



MET'MAP, your aeronautical weather chart ! - Copyright ORBIFLY December 2007 - Disclaimer

ORBIFLY MET'MAP TEAM :

Programming & Development : Alexandra Zaïnal
Concept & Development : Baudouin d'Aumeries
Co-Development & Prog : Marc-Olivier Méhu
Technical & hardware support : Manuel Goepfert

Contact : metmap@orbifly.com




SOURCES & CREDITS :

   NOAA